Time;durP1;ratioP1;P1;durP2;ratioP2;P2;SDS_P1;SDS_P2;PMS_P1;PMS_P2;Temp;Humidity;BMP_temperature;BMP_pressure;BME280_temperature;BME280_humidity;BME280_pressure;Samples;Min_cycle;Max_cycle;Signal;HPM_P1;HPM_P2
2021/12/21 00:01:25;;;;;;;26.20;23.43;;;;;;;4.53;78.17;102640.53;10445066;28;21079;-79
2021/12/21 00:06:26;;;;;;;26.80;23.43;;;;;;;4.50;78.64;102640.56;10446326;28;20235;-79
2021/12/21 00:11:30;;;;;;;24.93;22.40;;;;;;;4.48;77.91;102642.38;10438300;28;20211;-79
2021/12/21 00:22:07;;;;;;;211.97;87.27;;;;;;;4.40;78.56;102634.56;10408376;28;20655;-79
2021/12/21 00:27:10;;;;;;;26.40;22.60;;;;;;;4.16;78.13;102601.44;10440341;28;20254;-79
2021/12/21 00:32:12;;;;;;;24.70;22.33;;;;;;;4.34;78.08;102634.69;10444610;28;20232;-79
2021/12/21 00:37:14;;;;;;;25.93;23.40;;;;;;;4.31;78.67;102632.06;10445309;28;20281;-78
2021/12/21 00:42:17;;;;;;;24.87;22.47;;;;;;;4.27;78.77;102622.44;10438469;28;20222;-79
2021/12/21 00:47:18;;;;;;;25.53;23.00;;;;;;;4.25;78.47;102616.31;10447545;28;20265;-79
2021/12/21 00:52:20;;;;;;;26.03;23.33;;;;;;;4.22;78.44;102616.34;10453134;28;20236;-79
2021/12/21 00:57:23;;;;;;;25.20;22.73;;;;;;;3.75;78.78;102536.94;10451323;28;20236;-79
2021/12/21 01:02:24;;;;;;;32.47;23.67;;;;;;;4.16;78.91;102612.03;10450119;28;20241;-79
2021/12/21 01:07:32;;;;;;;25.03;22.47;;;;;;;4.00;78.56;102589.41;10443336;28;21630;-79
2021/12/21 01:12:47;;;;;;;24.60;22.23;;;;;;;4.12;79.02;102612.13;10444971;28;20206;-79
2021/12/21 01:17:55;;;;;;;25.67;23.20;;;;;;;3.83;79.00;102564.09;10447781;28;20235;-79
2021/12/21 01:23:19;;;;;;;183.03;71.03;;;;;;;3.69;79.23;102534.34;10446319;28;20211;-79
2021/12/21 01:28:30;;;;;;;23.53;21.37;;;;;;;3.99;78.80;102593.78;10443045;28;20238;-79
2021/12/21 01:33:46;;;;;;;24.50;22.27;;;;;;;3.85;78.68;102583.44;10447229;28;20245;-79
2021/12/21 01:38:55;;;;;;;24.03;21.93;;;;;;;3.70;78.80;102566.03;10455358;28;20221;-79
2021/12/21 01:44:10;;;;;;;24.27;22.17;;;;;;;3.79;78.31;102575.63;10451440;28;20292;-79
2021/12/21 01:54:31;;;;;;;24.77;22.53;;;;;;;3.80;79.18;102589.69;10456639;28;20658;-79
2021/12/21 01:59:35;;;;;;;24.70;22.87;;;;;;;3.84;78.71;102584.34;10455563;28;20219;-79
2021/12/21 02:04:37;;;;;;;24.43;22.20;;;;;;;3.55;78.28;102541.63;10453808;28;20231;-79
2021/12/21 02:09:40;;;;;;;24.70;22.40;;;;;;;3.79;78.65;102577.41;10453194;28;20255;-79
2021/12/21 02:14:48;;;;;;;24.37;22.13;;;;;;;3.77;78.80;102568.59;10451937;28;20965;-79
2021/12/21 02:20:04;;;;;;;23.93;22.00;;;;;;;3.74;79.11;102571.28;10458096;28;20338;-79
2021/12/21 02:25:30;;;;;;;23.97;21.90;;;;;;;3.70;78.95;102568.69;10452451;28;20234;-79
2021/12/21 02:30:28;;;;;;;24.17;21.77;;;;;;;3.67;78.73;102574.03;10447414;28;20268;-79
2021/12/21 02:35:31;;;;;;;24.60;22.50;;;;;;;3.48;78.63;102548.75;10455449;28;20206;-79
2021/12/21 02:40:34;;;;;;;24.53;22.37;;;;;;;3.46;79.36;102550.56;10454345;28;20551;-79
2021/12/21 02:45:36;;;;;;;24.57;22.33;;;;;;;3.44;79.21;102552.34;10449660;28;20222;-79
2021/12/21 02:50:40;;;;;;;23.30;21.20;;;;;;;3.55;79.26;102575.97;10455635;28;20204;-79
2021/12/21 02:55:42;;;;;;;24.43;21.87;;;;;;;3.07;79.16;102492.13;10456580;28;20269;-79
2021/12/21 03:00:44;;;;;;;23.27;21.17;;;;;;;3.49;78.78;102575.16;10446945;28;20777;-79
2021/12/21 03:05:51;;;;;;;24.20;22.10;;;;;;;2.93;79.13;102481.75;10454734;28;20329;-79
2021/12/21 03:11:05;;;;;;;24.63;22.43;;;;;;;3.44;78.82;102570.84;10451478;28;20811;-79
2021/12/21 03:16:07;;;;;;;25.37;22.93;;;;;;;2.98;78.85;102500.19;10447338;28;20755;-78
2021/12/21 03:21:10;;;;;;;24.00;22.10;;;;;;;3.39;78.81;102572.66;10449981;28;20204;-79
2021/12/21 03:26:12;;;;;;;25.20;23.20;;;;;;;3.15;79.46;102531.63;10465814;28;20839;-82
2021/12/21 03:31:13;;;;;;;24.13;22.17;;;;;;;3.20;79.21;102550.91;10465099;28;20690;-82
2021/12/21 03:36:17;;;;;;;23.83;21.77;;;;;;;3.31;78.84;102565.72;10463937;28;20721;-79
2021/12/21 03:41:19;;;;;;;24.53;22.60;;;;;;;3.17;78.74;102546.53;10460990;28;20215;-80
2021/12/21 03:46:23;;;;;;;24.33;22.07;;;;;;;3.27;78.94;102568.41;10454024;28;20225;-80
2021/12/21 03:51:26;;;;;;;24.83;22.63;;;;;;;3.25;79.62;102564.94;10451968;28;20207;-80
2021/12/21 03:56:38;;;;;;;25.17;22.80;;;;;;;3.09;79.59;102538.72;10455729;28;21121;-79
2021/12/21 04:01:40;;;;;;;25.63;23.23;;;;;;;3.16;78.98;102550.06;10455671;28;20227;-80
2021/12/21 04:06:43;;;;;;;22.67;21.03;;;;;;;2.83;79.23;102493.31;10452901;28;20223;-80
2021/12/21 04:11:44;;;;;;;24.63;22.47;;;;;;;2.51;79.71;102447.13;10454406;28;20206;-80
2021/12/21 04:16:46;;;;;;;24.13;22.00;;;;;;;2.78;79.93;102490.72;10455730;28;20207;-80
2021/12/21 04:21:49;;;;;;;23.43;21.53;;;;;;;2.47;79.41;102441.00;10450667;28;20207;-80
2021/12/21 04:26:51;;;;;;;23.87;21.57;;;;;;;2.51;79.79;102445.34;10450203;28;20319;-80
2021/12/21 04:31:53;;;;;;;24.43;22.47;;;;;;;2.98;79.99;102526.56;10450864;28;20230;-80
2021/12/21 04:36:56;;;;;;;24.57;22.37;;;;;;;2.47;79.82;102446.28;10448705;28;20214;-79
2021/12/21 04:41:58;;;;;;;24.30;22.40;;;;;;;2.96;79.83;102533.59;10452890;28;20222;-79
2021/12/21 04:47:00;;;;;;;24.87;22.57;;;;;;;2.92;79.74;102527.53;10451371;28;20226;-80
2021/12/21 04:52:04;;;;;;;23.27;21.43;;;;;;;2.47;79.60;102456.81;10456848;28;20215;-79
2021/12/21 04:57:06;;;;;;;663.60;257.27;;;;;;;2.84;79.69;102548.69;10450681;28;20734;-80
2021/12/21 05:02:08;;;;;;;771.23;271.40;;;;;;;2.39;79.61;102455.16;10449445;28;20219;-80
2021/12/21 05:07:12;;;;;;;25.00;22.60;;;;;;;2.81;79.44;102525.00;10451874;28;20237;-79
2021/12/21 05:12:14;;;;;;;25.20;22.97;;;;;;;2.79;79.39;102521.50;10454323;28;20215;-79
2021/12/21 05:17:15;;;;;;;24.33;22.17;;;;;;;2.78;79.86;102518.88;10459458;28;20226;-80
2021/12/21 05:22:18;;;;;;;24.80;22.60;;;;;;;2.77;79.95;102523.31;10458159;28;20204;-79
2021/12/21 05:27:21;;;;;;;25.00;22.70;;;;;;;2.32;79.58;102449.94;10458878;28;20376;-79
2021/12/21 05:32:22;;;;;;;25.10;22.67;;;;;;;2.43;79.85;102478.84;10460227;28;20238;-80
2021/12/21 05:37:25;;;;;;;25.23;23.13;;;;;;;2.68;79.77;102524.25;10456721;28;20203;-80
2021/12/21 05:42:27;;;;;;;25.83;23.23;;;;;;;2.42;79.61;102487.63;10453261;28;20830;-79
2021/12/21 05:47:29;;;;;;;24.93;22.83;;;;;;;2.57;80.07;102523.50;10460313;28;20663;-79
2021/12/21 05:52:32;;;;;;;26.07;23.80;;;;;;;2.25;79.71;102458.81;10457345;28;20263;-79
2021/12/21 05:57:35;;;;;;;26.50;24.17;;;;;;;2.47;79.90;102501.66;10454162;28;20211;-79
2021/12/21 06:02:37;;;;;;;26.60;24.37;;;;;;;2.59;79.83;102515.59;10458200;28;20225;-80
2021/12/21 06:07:40;;;;;;;27.40;24.60;;;;;;;2.57;80.06;102526.16;10456197;28;20223;-80
2021/12/21 06:12:59;;;;;;;25.03;22.93;;;;;;;2.56;79.90;102523.53;10455428;28;20215;-79
2021/12/21 06:28:47;;;;;;;25.90;23.90;;;;;;;2.54;80.10;102523.53;10456465;28;20230;-80
2021/12/21 06:33:50;;;;;;;24.17;22.33;;;;;;;2.51;79.32;102520.94;10453929;28;20246;-79
2021/12/21 06:38:54;;;;;;;25.87;23.47;;;;;;;2.47;79.42;102522.75;10461325;28;20332;-80
2021/12/21 06:43:56;;;;;;;26.00;23.50;;;;;;;2.44;79.23;102528.03;10455099;28;20263;-79
2021/12/21 06:54:19;;;;;;;27.60;25.00;;;;;;;2.32;79.25;102521.13;10457154;28;20210;-80
2021/12/21 06:59:21;;;;;;;26.67;24.43;;;;;;;2.07;80.23;102480.97;10446815;28;20211;-80
2021/12/21 07:04:24;;;;;;;27.07;24.57;;;;;;;2.40;79.56;102536.00;10452155;28;20250;-79
2021/12/21 07:09:34;;;;;;;27.30;24.73;;;;;;;2.38;79.51;102535.16;10452615;28;20654;-80
2021/12/21 07:19:56;;;;;;;26.43;24.27;;;;;;;2.37;80.02;102536.03;10453293;28;20215;-80
2021/12/21 07:24:59;;;;;;;26.30;24.47;;;;;;;2.33;79.60;102530.78;10453611;28;20207;-79
2021/12/21 07:30:00;;;;;;;27.53;24.53;;;;;;;2.16;79.50;102511.63;10454007;28;20901;-79
2021/12/21 07:35:02;;;;;;;26.57;24.23;;;;;;;2.29;79.26;102531.69;10451555;28;21047;-80
2021/12/21 07:40:07;;;;;;;26.70;24.70;;;;;;;2.30;79.62;102535.22;10454586;28;20809;-80
2021/12/21 07:45:10;;;;;;;26.23;24.43;;;;;;;2.01;80.03;102491.53;10450756;28;20229;-79
2021/12/21 07:50:13;;;;;;;27.80;25.27;;;;;;;2.05;79.80;102501.16;10452908;28;20230;-79
2021/12/21 07:55:16;;;;;;;26.07;24.27;;;;;;;2.16;79.41;102513.38;10466083;28;20257;-80
2021/12/21 08:00:18;;;;;;;26.07;23.90;;;;;;;2.23;79.72;102544.09;10465256;28;20215;-80
2021/12/21 08:05:20;;;;;;;26.03;23.77;;;;;;;2.01;79.26;102515.25;10462836;28;20206;-80
2021/12/21 08:10:29;;;;;;;26.33;23.90;;;;;;;1.75;79.63;102483.88;10466230;28;20233;-80
2021/12/21 08:15:32;;;;;;;27.40;24.97;;;;;;;2.20;79.43;102566.03;10461988;28;20215;-80
2021/12/21 08:20:33;;;;;;;27.43;24.67;;;;;;;2.21;80.02;102567.81;10453545;28;20255;-79
2021/12/21 08:25:38;;;;;;;27.73;25.17;;;;;;;2.22;80.21;102566.91;10468696;28;21113;-80
2021/12/21 08:30:40;;;;;;;26.90;24.63;;;;;;;2.22;79.80;102569.53;10458749;28;20219;-79
2021/12/21 08:35:42;;;;;;;26.30;24.00;;;;;;;1.85;79.73;102511.91;10466652;28;20241;-80
2021/12/21 08:40:49;;;;;;;26.53;24.30;;;;;;;1.97;79.75;102539.03;10470443;28;20208;-79
2021/12/21 08:45:52;;;;;;;28.63;25.97;;;;;;;2.06;80.00;102550.38;10462690;28;20702;-80
2021/12/21 08:50:56;;;;;;;27.63;25.33;;;;;;;1.80;80.04;102495.25;10473047;28;20249;-79
2021/12/21 08:55:59;;;;;;;26.93;24.50;;;;;;;2.26;80.56;102578.31;10475721;28;20770;-79
2021/12/21 09:01:04;;;;;;;28.37;25.87;;;;;;;2.28;79.74;102573.88;10472153;28;20234;-79
2021/12/21 09:06:06;;;;;;;27.90;25.70;;;;;;;2.08;80.08;102539.81;10470566;28;20265;-80
2021/12/21 09:11:09;;;;;;;29.17;26.60;;;;;;;2.28;80.24;102558.97;10483531;28;20218;-79
2021/12/21 09:16:10;;;;;;;28.80;26.17;;;;;;;2.33;80.37;102574.72;10467460;28;20218;-80
2021/12/21 09:21:13;;;;;;;28.40;26.03;;;;;;;2.36;80.14;102572.06;10474308;28;20667;-80
2021/12/21 09:26:16;;;;;;;29.80;27.23;;;;;;;2.42;81.07;102564.09;10479931;28;20225;-80
2021/12/21 09:31:18;;;;;;;27.83;25.47;;;;;;;2.33;80.85;102533.41;10473053;28;20231;-79
2021/12/21 09:36:19;;;;;;;28.03;25.53;;;;;;;2.64;81.59;102558.63;10477144;28;20211;-80
2021/12/21 09:41:23;;;;;;;27.50;25.03;;;;;;;2.34;81.04;102505.31;10474880;28;20211;-79
2021/12/21 09:46:24;;;;;;;26.73;24.53;;;;;;;2.75;80.80;102562.03;10478104;28;20219;-80
2021/12/21 09:51:26;;;;;;;28.43;26.00;;;;;;;2.40;81.21;102476.22;10475222;28;20219;-79
2021/12/21 09:56:29;;;;;;;26.07;24.07;;;;;;;2.92;81.39;102549.50;10478408;28;20276;-79
2021/12/21 10:01:31;;;;;;;27.00;24.67;;;;;;;3.02;81.57;102562.59;10471677;28;20219;-79
2021/12/21 10:06:43;;;;;;;27.93;25.57;;;;;;;3.15;82.13;102558.91;10473060;28;20730;-80
2021/12/21 10:11:48;;;;;;;26.63;24.40;;;;;;;3.27;81.96;102553.44;10464517;28;20211;-80
2021/12/21 10:17:00;;;;;;;26.43;24.07;;;;;;;3.43;81.80;102564.69;10469873;28;20222;-79
2021/12/21 10:22:10;;;;;;;24.67;22.87;;;;;;;3.52;81.13;102571.59;10468541;28;20219;-79
2021/12/21 10:27:13;;;;;;;23.63;21.50;;;;;;;3.56;79.72;102565.41;10467601;28;20234;-79
2021/12/21 10:32:20;;;;;;;23.93;22.13;;;;;;;3.30;79.57;102510.28;10468217;28;20283;-80
2021/12/21 10:37:26;;;;;;;23.73;22.10;;;;;;;3.46;79.33;102509.16;10470464;28;20654;-79
2021/12/21 10:42:29;;;;;;;25.33;23.43;;;;;;;3.79;80.00;102535.97;10470247;28;20589;-79
2021/12/21 10:47:33;;;;;;;26.03;23.57;;;;;;;3.76;79.23;102501.66;10471928;28;20234;-79
2021/12/21 10:52:34;;;;;;;23.83;21.83;;;;;;;3.92;77.94;102522.53;10472753;28;20216;-79
2021/12/21 10:57:37;;;;;;;24.47;22.70;;;;;;;3.92;77.95;102522.53;10476015;28;20204;-79
2021/12/21 11:02:39;;;;;;;23.83;22.00;;;;;;;3.90;76.89;102512.88;10478059;28;20227;-79
2021/12/21 11:07:46;;;;;;;24.97;23.13;;;;;;;3.89;76.85;102516.41;10473852;28;20304;-79
2021/12/21 11:12:50;;;;;;;23.87;22.07;;;;;;;3.92;77.07;102512.88;10470809;28;20207;-79
2021/12/21 11:17:52;;;;;;;23.57;21.77;;;;;;;4.00;77.15;102508.31;10468436;28;21199;-80
2021/12/21 11:22:55;;;;;;;22.40;20.70;;;;;;;4.05;76.56;102511.75;10470404;28;20261;-79
2021/12/21 11:28:01;;;;;;;24.33;21.87;;;;;;;3.98;75.81;102490.75;10464236;28;20500;-79
2021/12/21 11:33:06;;;;;;;22.03;20.27;;;;;;;4.18;75.35;102508.88;10470241;28;20242;-79
2021/12/21 11:38:11;;;;;;;22.13;20.43;;;;;;;4.22;75.94;102476.19;10466716;28;20567;-80
2021/12/21 11:43:50;;;;;;;21.93;19.97;;;;;;;4.46;75.74;102488.09;10468491;28;20209;-79
2021/12/21 11:48:57;;;;;;;23.10;21.10;;;;;;;4.52;76.17;102447.41;10468515;28;20222;-79
2021/12/21 11:54:18;;;;;;;23.50;21.90;;;;;;;5.07;78.13;102468.28;10474513;28;20217;-79
2021/12/21 11:59:23;;;;;;;23.67;22.17;;;;;;;5.70;80.43;102451.81;10485970;28;20230;-79
2021/12/21 12:04:25;;;;;;;24.33;22.37;;;;;;;6.37;80.88;102463.34;10479267;28;20223;-79
2021/12/21 12:09:29;;;;;;;22.83;21.30;;;;;;;6.69;79.61;102420.88;10479633;28;20232;-79
2021/12/21 12:14:33;;;;;;;23.23;21.63;;;;;;;7.09;77.13;102415.19;10475249;28;20487;-80
2021/12/21 12:19:38;;;;;;;22.13;20.53;;;;;;;7.63;73.41;102463.97;10473431;28;20218;-79
2021/12/21 12:24:41;;;;;;;21.37;19.97;;;;;;;7.39;70.94;102417.78;10460571;28;20982;-80
2021/12/21 12:29:47;;;;;;;20.03;18.63;;;;;;;7.60;69.96;102454.28;10475375;28;20223;-79
2021/12/21 12:35:02;;;;;;;19.30;18.00;;;;;;;7.54;67.88;102446.53;10478769;28;20220;-79
2021/12/21 12:40:09;;;;;;;18.80;17.60;;;;;;;7.39;66.19;102436.41;10471019;28;20230;-79
2021/12/21 12:45:16;;;;;;;19.20;17.87;;;;;;;7.25;65.76;102438.59;10474432;28;20591;-79
2021/12/21 12:50:19;;;;;;;18.97;17.60;;;;;;;6.99;65.00;102413.75;10482288;28;20227;-79
2021/12/21 12:55:23;;;;;;;19.50;18.13;;;;;;;6.80;64.86;102403.69;10479987;28;20206;-79
2021/12/21 13:00:29;;;;;;;18.80;17.30;;;;;;;6.94;64.91;102442.22;10480855;28;20230;-79
2021/12/21 13:05:36;;;;;;;17.97;16.80;;;;;;;6.55;64.61;102373.47;10483990;28;20210;-79
2021/12/21 13:10:39;;;;;;;17.50;16.40;;;;;;;6.87;64.07;102428.25;10476963;28;20233;-79
2021/12/21 13:15:50;;;;;;;17.23;16.10;;;;;;;6.67;63.25;102404.97;10473911;28;20230;-79
2021/12/21 13:20:53;;;;;;;17.30;16.30;;;;;;;6.63;63.36;102387.41;10476166;28;20218;-79
2021/12/21 13:25:59;;;;;;;16.20;15.30;;;;;;;6.83;62.75;102418.66;10473028;28;20296;-80
2021/12/21 13:31:07;;;;;;;17.47;16.47;;;;;;;6.62;62.79;102396.28;10479885;28;20277;-80
2021/12/21 13:36:10;;;;;;;18.93;17.50;;;;;;;6.20;63.38;102325.84;10490716;28;20218;-80
2021/12/21 13:41:13;;;;;;;18.97;17.77;;;;;;;6.76;62.80;102410.00;10491898;28;20199;-79
2021/12/21 13:46:16;;;;;;;18.80;17.60;;;;;;;6.76;62.75;102419.75;10486916;28;20211;-80
2021/12/21 13:51:18;;;;;;;19.03;17.77;;;;;;;6.75;63.62;102410.91;10492761;28;20223;-80
2021/12/21 13:56:23;;;;;;;18.07;17.07;;;;;;;6.47;63.34;102375.50;10490814;28;20204;-79
2021/12/21 14:01:28;;;;;;;18.83;17.57;;;;;;;6.26;63.04;102345.16;10489049;28;20224;-80
2021/12/21 14:06:30;;;;;;;18.97;17.63;;;;;;;6.58;62.62;102413.22;10493806;28;20214;-79
2021/12/21 14:11:38;;;;;;;17.77;16.77;;;;;;;6.22;62.63;102360.28;10490023;28;20247;-80
2021/12/21 14:16:46;;;;;;;19.43;18.33;;;;;;;6.04;62.95;102346.63;10489002;28;20211;-79
2021/12/21 14:21:50;;;;;;;19.97;18.60;;;;;;;6.19;62.56;102394.84;10485282;28;20207;-80
2021/12/21 14:26:55;;;;;;;20.93;19.40;;;;;;;5.47;62.79;102312.81;10477861;28;20233;-80
2021/12/21 14:32:15;;;;;;;19.17;17.70;;;;;;;5.58;62.66;102336.38;10477198;28;20262;-79
2021/12/21 14:37:20;;;;;;;20.47;19.17;;;;;;;6.40;60.59;102431.41;10484030;28;20468;-80
2021/12/21 14:42:30;;;;;;;20.40;19.10;;;;;;;6.12;62.02;102436.63;10476630;28;20227;-82
2021/12/21 14:47:40;;;;;;;19.20;17.67;;;;;;;6.01;62.87;102430.72;10492133;28;20223;-81
2021/12/21 14:52:49;;;;;;;19.83;18.53;;;;;;;5.36;62.89;102349.31;10489331;28;20751;-81
2021/12/21 14:57:58;;;;;;;20.03;18.53;;;;;;;5.84;63.20;102424.03;10486590;28;20213;-81
2021/12/21 15:03:05;;;;;;;19.97;18.67;;;;;;;4.78;63.38;102262.44;10476731;28;20280;-80
2021/12/21 15:08:11;;;;;;;20.10;18.80;;;;;;;5.65;63.29;102415.69;10478314;28;20599;-82
2021/12/21 15:13:14;;;;;;;21.13;19.57;;;;;;;5.39;64.06;102387.19;10482070;28;20202;-81
2021/12/21 15:18:19;;;;;;;20.50;19.07;;;;;;;5.43;63.56;102414.50;10470443;28;20203;-80
2021/12/21 15:23:20;;;;;;;21.33;19.43;;;;;;;4.94;64.12;102349.47;10456399;28;20242;-81
2021/12/21 15:28:22;;;;;;;21.13;19.43;;;;;;;5.24;64.77;102420.22;10470773;28;20231;-80
2021/12/21 15:33:25;;;;;;;21.70;20.00;;;;;;;5.03;64.52;102404.84;10466371;28;20709;-81
2021/12/21 15:38:27;;;;;;;21.40;19.77;;;;;;;4.67;64.72;102355.34;10470351;28;20589;-81
2021/12/21 15:43:33;;;;;;;22.93;21.13;;;;;;;4.84;65.08;102397.34;10465180;28;20267;-81
2021/12/21 15:48:36;;;;;;;22.60;20.80;;;;;;;4.73;65.46;102401.09;10463256;28;20249;-81
2021/12/21 15:53:38;;;;;;;23.23;21.33;;;;;;;4.86;65.89;102443.16;10469149;28;20798;-81
2021/12/21 15:58:41;;;;;;;22.43;20.80;;;;;;;4.78;66.32;102431.00;10468216;28;20196;-80
2021/12/21 16:03:46;;;;;;;23.80;22.10;;;;;;;4.51;66.80;102406.84;10467711;28;20248;-81
2021/12/21 16:08:48;;;;;;;22.47;20.83;;;;;;;4.58;67.28;102427.00;10474521;28;20234;-80
2021/12/21 16:13:49;;;;;;;24.27;22.10;;;;;;;4.24;67.59;102373.94;10466402;28;20675;-81
2021/12/21 16:18:52;;;;;;;23.33;21.30;;;;;;;4.54;67.65;102429.72;10458062;28;20273;-81
2021/12/21 16:23:54;;;;;;;26.53;23.90;;;;;;;4.49;67.89;102443.06;10457083;28;20239;-80
2021/12/21 16:28:57;;;;;;;26.27;24.20;;;;;;;4.44;67.71;102429.91;10470569;28;20611;-80
2021/12/21 16:34:00;;;;;;;26.37;24.00;;;;;;;4.26;67.92;102417.94;10463299;28;20571;-80
2021/12/21 16:39:02;;;;;;;26.73;24.40;;;;;;;4.32;68.46;102440.75;10471703;28;20810;-81
2021/12/21 16:44:05;;;;;;;25.80;23.87;;;;;;;4.26;68.97;102448.81;10462130;28;20203;-81
2021/12/21 16:49:08;;;;;;;26.70;24.70;;;;;;;3.52;69.72;102331.22;10465928;28;20596;-80
2021/12/21 16:54:10;;;;;;;26.27;24.03;;;;;;;4.17;69.18;102452.50;10466649;28;20203;-80
2021/12/21 16:59:12;;;;;;;26.90;24.80;;;;;;;4.14;69.71;102459.59;10459749;28;20199;-80
2021/12/21 17:04:15;;;;;;;27.47;25.13;;;;;;;3.74;69.47;102395.13;10465683;28;20247;-80
2021/12/21 17:09:17;;;;;;;26.90;24.67;;;;;;;3.93;70.07;102437.09;10480276;28;20704;-80
2021/12/21 17:14:19;;;;;;;27.40;25.00;;;;;;;3.90;69.99;102446.81;10483152;28;20316;-81
2021/12/21 17:19:22;;;;;;;27.97;25.63;;;;;;;3.47;70.51;102376.22;10477790;28;20298;-80
2021/12/21 17:24:24;;;;;;;28.70;26.00;;;;;;;3.95;69.88;102457.28;10468833;28;20295;-80
2021/12/21 17:29:25;;;;;;;28.07;25.77;;;;;;;3.20;70.45;102337.97;10455134;28;20772;-80
2021/12/21 17:34:29;;;;;;;28.33;26.07;;;;;;;3.81;70.50;102454.03;10473281;28;20284;-81
2021/12/21 17:39:30;;;;;;;28.20;25.47;;;;;;;3.83;70.45;102454.88;10473110;28;20264;-82
2021/12/21 17:44:32;;;;;;;29.03;26.37;;;;;;;3.55;71.06;102413.06;10468565;28;20210;-80
2021/12/21 17:49:35;;;;;;;29.17;26.70;;;;;;;3.78;70.90;102459.34;10469996;28;20550;-80
2021/12/21 17:54:39;;;;;;;30.23;27.43;;;;;;;3.75;71.58;102462.94;10470618;28;20551;-80
2021/12/21 17:59:40;;;;;;;29.93;27.30;;;;;;;3.69;71.78;102463.91;10469853;28;20211;-80
2021/12/21 18:04:45;;;;;;;28.40;26.30;;;;;;;3.44;71.98;102439.63;10469979;28;20590;-80
2021/12/21 18:09:47;;;;;;;29.57;27.10;;;;;;;3.47;71.81;102439.59;10472120;28;20593;-81
2021/12/21 18:14:49;;;;;;;29.77;27.40;;;;;;;3.60;71.94;102466.69;10475506;28;20217;-80
2021/12/21 18:19:52;;;;;;;30.33;27.87;;;;;;;3.39;71.89;102425.66;10468093;28;20221;-80
2021/12/21 18:24:53;;;;;;;30.10;27.33;;;;;;;3.01;71.95;102365.53;10469892;28;20212;-80
2021/12/21 18:29:56;;;;;;;30.80;27.93;;;;;;;3.38;72.36;102439.75;10476473;28;20254;-80
2021/12/21 18:34:59;;;;;;;29.23;26.90;;;;;;;3.35;72.30;102439.78;10481346;28;20234;-81
2021/12/21 18:40:01;;;;;;;30.17;27.63;;;;;;;3.50;72.74;102462.44;10470350;28;20224;-81
2021/12/21 18:45:11;;;;;;;31.57;28.53;;;;;;;3.48;72.36;102464.25;10483461;28;20246;-81
2021/12/21 18:50:17;;;;;;;31.20;28.37;;;;;;;3.33;72.96;102453.91;10475289;28;20227;-81
2021/12/21 18:55:21;;;;;;;30.93;28.43;;;;;;;3.42;73.30;102475.78;10473344;28;20203;-80
2021/12/21 19:00:25;;;;;;;32.80;29.97;;;;;;;3.41;73.03;102481.97;10478381;28;20211;-80
2021/12/21 19:05:28;;;;;;;32.03;29.20;;;;;;;3.41;73.21;102462.59;10474641;28;20691;-80
2021/12/21 19:10:31;;;;;;;30.70;28.10;;;;;;;3.37;73.13;102455.59;10475373;28;20227;-81
2021/12/21 19:15:34;;;;;;;31.67;28.87;;;;;;;3.34;73.73;102460.97;10468058;28;20196;-80
2021/12/21 19:20:39;;;;;;;33.07;29.70;;;;;;;3.01;73.94;102413.88;10469020;28;20211;-80
2021/12/21 19:25:43;;;;;;;32.20;28.87;;;;;;;3.26;73.64;102469.88;10467940;28;20222;-80
2021/12/21 19:30:46;;;;;;;31.77;28.93;;;;;;;3.24;74.05;102469.00;10466305;28;20670;-80
2021/12/21 19:35:49;;;;;;;31.37;28.70;;;;;;;3.23;74.39;102479.59;10468145;28;20211;-80
2021/12/21 19:40:52;;;;;;;31.77;29.00;;;;;;;3.21;73.80;102476.97;10461673;28;20207;-81
2021/12/21 19:45:54;;;;;;;33.70;30.63;;;;;;;3.18;74.46;102474.34;10461231;28;20762;-80
2021/12/21 19:50:57;;;;;;;32.40;29.70;;;;;;;3.16;74.46;102477.94;10469742;28;20219;-80
2021/12/21 19:56:00;;;;;;;31.67;28.73;;;;;;;2.78;74.24;102427.41;10469135;28;20588;-80
2021/12/21 20:01:02;;;;;;;33.13;30.07;;;;;;;3.14;74.46;102477.06;10466729;28;20284;-83
2021/12/21 20:06:05;;;;;;;31.63;29.10;;;;;;;3.12;74.40;102482.38;10470965;28;20203;-79
2021/12/21 20:11:11;;;;;;;33.73;30.80;;;;;;;3.10;74.63;102481.53;10479003;28;20230;-80
2021/12/21 20:16:13;;;;;;;34.27;31.17;;;;;;;3.07;74.96;102478.91;10464894;28;20209;-80
2021/12/21 20:21:16;;;;;;;32.30;29.33;;;;;;;3.04;74.81;102485.13;10465892;28;20271;-80
2021/12/21 20:26:18;;;;;;;34.43;31.37;;;;;;;3.02;74.93;102475.50;10469225;28;20200;-80
2021/12/21 20:31:20;;;;;;;34.33;31.33;;;;;;;2.76;74.92;102431.84;10465058;28;20242;-80
2021/12/21 20:36:23;;;;;;;32.50;29.43;;;;;;;2.89;75.32;102456.31;10461845;28;20208;-79
2021/12/21 20:41:25;;;;;;;34.00;30.63;;;;;;;2.96;74.73;102472.91;10471039;28;20203;-79
2021/12/21 20:46:26;;;;;;;32.47;29.60;;;;;;;2.55;75.33;102418.94;10469442;28;20208;-80
2021/12/21 20:51:31;;;;;;;33.70;30.80;;;;;;;2.61;75.19;102422.34;10481149;28;20226;-79
2021/12/21 20:56:33;;;;;;;32.83;29.97;;;;;;;2.89;75.83;102467.72;10480185;28;20662;-80
2021/12/21 21:01:36;;;;;;;34.37;31.37;;;;;;;2.89;75.60;102467.72;10478056;28;20222;-78
2021/12/21 21:06:39;;;;;;;33.50;30.73;;;;;;;2.62;75.41;102424.13;10474125;28;20238;-81
2021/12/21 21:11:40;;;;;;;31.97;29.13;;;;;;;2.79;75.44;102455.56;10473920;28;20595;-80
2021/12/21 21:16:42;;;;;;;31.03;28.50;;;;;;;2.77;75.88;102462.63;10470634;28;20212;-79
2021/12/21 21:21:45;;;;;;;32.10;29.33;;;;;;;2.31;75.50;102389.34;10474053;28;20199;-80
2021/12/21 21:26:47;;;;;;;33.00;30.20;;;;;;;2.66;75.72;102435.50;10477322;28;20204;-80
2021/12/21 21:31:49;;;;;;;32.47;29.87;;;;;;;2.81;76.42;102458.19;10475044;28;20248;-80
2021/12/21 21:36:52;;;;;;;31.93;29.03;;;;;;;2.79;75.73;102466.09;10474702;28;20266;-80
2021/12/21 21:41:54;;;;;;;33.70;30.43;;;;;;;2.57;76.31;102419.78;10475202;28;20596;-81
2021/12/21 21:46:57;;;;;;;31.40;28.67;;;;;;;2.77;76.16;102459.09;10477278;28;20738;-80
2021/12/21 21:52:00;;;;;;;30.67;27.97;;;;;;;2.54;76.26;102418.03;10466257;28;20232;-80
2021/12/21 21:57:02;;;;;;;32.93;29.93;;;;;;;2.71;76.40;102453.03;10476848;28;20211;-80
2021/12/21 22:02:04;;;;;;;610.37;268.77;;;;;;;2.38;76.08;102388.38;10475269;28;20236;-80
2021/12/21 22:07:08;;;;;;;32.83;29.80;;;;;;;2.69;76.80;102443.34;10474897;28;20836;-79
2021/12/21 22:12:10;;;;;;;33.47;29.87;;;;;;;2.67;76.36;102450.41;10472427;28;20226;-80
2021/12/21 22:17:12;;;;;;;34.20;31.03;;;;;;;2.22;76.82;102382.41;10479635;28;20215;-81
2021/12/21 22:22:15;;;;;;;33.50;30.40;;;;;;;2.45;76.23;102413.78;10467492;28;20214;-81
2021/12/21 22:27:17;;;;;;;34.27;31.03;;;;;;;2.41;76.79;102385.72;10472583;28;20746;-80
2021/12/21 22:32:18;;;;;;;32.63;29.73;;;;;;;2.37;76.93;102375.19;10476071;28;20234;-80
2021/12/21 22:37:21;;;;;;;32.17;29.37;;;;;;;2.27;76.64;102364.78;10469683;28;20218;-80
2021/12/21 22:42:23;;;;;;;31.10;28.50;;;;;;;2.23;76.82;102368.34;10467749;28;20453;-80
2021/12/21 22:47:25;;;;;;;32.77;29.90;;;;;;;2.56;76.72;102421.53;10471926;28;20200;-81
2021/12/21 22:52:28;;;;;;;32.70;29.73;;;;;;;2.34;76.85;102384.91;10469595;28;20726;-80
2021/12/21 22:57:29;;;;;;;32.07;29.27;;;;;;;2.42;77.02;102397.13;10461562;28;20249;-80
2021/12/21 23:02:31;;;;;;;32.47;29.50;;;;;;;2.53;76.82;102419.81;10469975;28;20222;-81
2021/12/21 23:07:34;;;;;;;32.63;29.70;;;;;;;2.53;76.70;102409.28;10470342;28;20231;-80
2021/12/21 23:12:37;;;;;;;32.47;29.40;;;;;;;2.50;77.34;102424.25;10469593;28;20242;-80
2021/12/21 23:17:39;;;;;;;31.67;28.77;;;;;;;2.49;77.14;102422.53;10466868;28;20222;-80
2021/12/21 23:22:42;;;;;;;32.23;29.53;;;;;;;2.41;76.87;102412.06;10465164;28;20215;-80
2021/12/21 23:27:44;;;;;;;33.30;30.23;;;;;;;2.21;76.84;102385.94;10468542;28;20227;-80
2021/12/21 23:32:46;;;;;;;32.40;29.80;;;;;;;2.19;77.29;102392.13;10467533;28;20276;-80